Tullahoma, Tennessee
Current Conditions -  °F | °C
As of 12:15 AM on Sunday 21 Dec 2014 (Local Time) from KTHA Reporting Station
Clear Clear  
Wind Chill: 30°   Ceiling: Unl
Heat Index: 30°   Visibility: 10mi
Dew Point: 25°   Wind: 0mph
Humidity: 80%   Direction: NA
Pressure: 30.22"   Gusts: NA
Location:  35.36°N, 86.21°W
Report Text: KTHA 210615Z AUTO 00000KT 10SM CLR M01/M04 A3022 RMK
Loading
Personal Weather Stations






























Interactive Weather Map New forecast layout! Learn more

10-Day Weather Forecast

Advertisements
Track Severe Weather on mobile